createdAt,value
2019-02-10T00:02:16.493Z,99725.51
2019-02-10T00:04:46.269Z,99724.95
2019-02-10T00:07:16.061Z,99720.25
2019-02-10T00:09:46.121Z,99718.64
2019-02-10T00:12:15.661Z,99715.44
2019-02-10T00:14:45.369Z,99714.49
2019-02-10T00:17:15.022Z,99714.35
2019-02-10T00:19:44.555Z,99705.05
2019-02-10T00:22:14.051Z,99695.97
2019-02-10T00:24:44.141Z,99704.99
2019-02-10T00:27:13.641Z,99706.44
2019-02-10T00:29:43.233Z,99705.57
2019-02-10T00:32:12.984Z,99701.36
2019-02-10T00:34:42.717Z,99697.13
2019-02-10T00:37:12.262Z,99699.55
2019-02-10T00:39:41.797Z,99693.20
2019-02-10T00:42:11.330Z,99704.13
2019-02-10T00:44:41.311Z,99698.28
2019-02-10T00:47:10.806Z,99690.50
2019-02-10T00:49:40.545Z,99698.78
2019-02-10T00:52:10.039Z,99694.71
2019-02-10T00:54:40.013Z,99691.31
2019-02-10T00:57:09.510Z,99691.50
2019-02-10T00:59:39.006Z,99682.37
2019-02-10T01:02:08.775Z,99681.50
2019-02-10T01:04:38.623Z,99676.84
2019-02-10T01:07:08.495Z,99688.58
2019-02-10T01:09:38.216Z,99681.80
2019-02-10T01:12:07.724Z,99682.70
2019-02-10T01:14:37.386Z,99679.53
2019-02-10T01:17:06.946Z,99677.75
2019-02-10T01:19:36.912Z,99673.40
2019-02-10T01:22:06.487Z,99666.53
2019-02-10T01:24:36.309Z,99669.13
2019-02-10T01:27:06.072Z,99665.87
2019-02-10T01:29:35.562Z,99663.33
2019-02-10T01:32:05.074Z,99653.17
2019-02-10T01:34:34.597Z,99654.12
2019-02-10T01:37:04.368Z,99651.49
2019-02-10T01:39:33.954Z,99657.22
2019-02-10T01:42:03.664Z,99649.02
2019-02-10T01:44:33.152Z,99644.00
2019-02-10T01:47:02.981Z,99638.61
2019-02-10T01:49:32.475Z,99641.11
2019-02-10T01:52:02.052Z,99639.88
2019-02-10T01:54:31.556Z,99636.45
2019-02-10T01:57:01.040Z,99625.47
2019-02-10T01:59:31.232Z,99623.39
2019-02-10T02:02:01.246Z,99614.53
2019-02-10T02:04:31.372Z,99614.32
2019-02-10T02:07:02.669Z,99608.25
2019-02-10T02:09:34.993Z,99601.20
2019-02-10T02:12:04.421Z,99595.41
2019-02-10T02:14:34.057Z,99590.28
2019-02-10T02:17:03.781Z,99588.23
2019-02-10T02:19:33.359Z,99581.06
2019-02-10T02:22:03.086Z,99584.53
2019-02-10T02:24:32.949Z,99582.64
2019-02-10T02:27:02.490Z,99575.65
2019-02-10T02:29:31.986Z,99569.34
2019-02-10T02:32:01.709Z,99558.59
2019-02-10T02:34:31.452Z,99553.33
2019-02-10T02:37:08.027Z,99539.67
2019-02-10T02:39:32.815Z,99541.95
2019-02-10T02:42:02.293Z,99531.70
2019-02-10T02:44:32.650Z,99532.14
2019-02-10T02:47:02.386Z,99529.88
2019-02-10T02:49:31.906Z,99524.01
2019-02-10T02:52:01.412Z,99520.00
2019-02-10T02:54:31.136Z,99520.84
2019-02-10T02:57:00.629Z,99516.83
2019-02-10T02:59:30.114Z,99516.94
2019-02-10T03:01:59.871Z,99519.56
2019-02-10T03:04:29.344Z,99514.42
2019-02-10T03:06:59.199Z,99513.03
2019-02-10T03:09:28.922Z,99511.32
2019-02-10T03:11:58.410Z,99508.66
2019-02-10T03:14:28.361Z,99509.53
2019-02-10T03:16:58.416Z,99493.63
2019-02-10T03:19:28.825Z,99493.04
2019-02-10T03:21:59.454Z,99488.59
2019-02-10T03:24:29.838Z,99481.66
2019-02-10T03:26:59.381Z,99486.20
2019-02-10T03:29:29.348Z,99483.31
2019-02-10T03:31:59.513Z,99472.88
2019-02-10T03:34:29.561Z,99467.92
2019-02-10T03:36:59.463Z,99465.65
2019-02-10T03:39:29.459Z,99458.84
2019-02-10T03:41:59.761Z,99445.81
2019-02-10T03:44:29.742Z,99445.45
2019-02-10T03:47:00.074Z,99436.84
2019-02-10T03:49:29.638Z,99431.22
2019-02-10T03:52:00.164Z,99425.86
2019-02-10T03:54:29.976Z,99424.03
2019-02-10T03:57:00.250Z,99420.41
2019-02-10T03:59:30.233Z,99414.81
2019-02-10T04:02:00.296Z,99374.17
2019-02-10T04:04:30.317Z,99388.73
2019-02-10T04:07:00.192Z,99404.34
2019-02-10T04:09:31.235Z,99396.20
2019-02-10T04:12:01.075Z,99389.59
2019-02-10T04:14:30.850Z,99383.59
2019-02-10T04:17:00.360Z,99388.56
2019-02-10T04:19:30.378Z,99380.84
2019-02-10T04:22:00.918Z,99372.51
2019-02-10T04:24:30.683Z,99360.31
2019-02-10T04:27:01.167Z,99356.72
2019-02-10T04:29:32.160Z,99356.55
2019-02-10T04:32:01.933Z,99343.52
2019-02-10T04:34:33.195Z,99339.76
2019-02-10T04:37:02.703Z,99337.15
2019-02-10T04:39:32.288Z,99332.28
2019-02-10T04:42:01.783Z,99322.14
2019-02-10T04:44:31.632Z,99317.09
2019-02-10T04:47:01.675Z,99320.00
2019-02-10T04:49:31.482Z,99307.49
2019-02-10T04:52:01.237Z,99306.66
2019-02-10T04:54:31.449Z,99294.00
2019-02-10T04:57:01.154Z,99294.00
2019-02-10T04:59:31.869Z,99285.36
2019-02-10T05:02:01.676Z,99277.83
2019-02-10T05:04:31.640Z,99274.92
2019-02-10T05:07:01.528Z,99259.08
2019-02-10T05:09:31.870Z,99245.38
2019-02-10T05:12:01.654Z,99244.88
2019-02-10T05:14:31.487Z,99243.73
2019-02-10T05:17:01.364Z,99238.41
2019-02-10T05:19:31.610Z,99225.42
2019-02-10T05:22:01.548Z,99228.20
2019-02-10T05:24:31.552Z,99217.53
2019-02-10T05:27:01.756Z,99210.76
2019-02-10T05:29:31.886Z,99210.47
2019-02-10T05:32:01.652Z,99196.25
2019-02-10T05:34:31.558Z,99188.81
2019-02-10T05:37:01.832Z,99182.56
2019-02-10T05:39:32.045Z,99190.61
2019-02-10T05:42:01.660Z,99175.81
2019-02-10T05:44:32.159Z,99179.39
2019-02-10T05:47:01.759Z,99182.10
2019-02-10T05:49:32.049Z,99176.30
2019-02-10T05:52:02.378Z,99162.70
2019-02-10T05:54:31.873Z,99162.70
2019-02-10T05:57:02.260Z,99149.77
2019-02-10T05:59:32.554Z,99153.63
2019-02-10T06:02:25.314Z,99147.54
2019-02-10T06:04:55.293Z,99137.77
2019-02-10T06:07:24.764Z,99131.20
2019-02-10T06:09:54.489Z,99120.90
2019-02-10T06:12:24.217Z,99111.52
2019-02-10T06:14:53.717Z,99104.13
2019-02-10T06:17:23.198Z,99105.99
2019-02-10T06:19:52.959Z,99096.37
2019-02-10T06:22:22.699Z,99086.63
2019-02-10T06:24:54.372Z,99073.52
2019-02-10T06:27:24.085Z,99057.77
2019-02-10T06:29:54.590Z,99044.73
2019-02-10T06:32:25.730Z,99035.91
2019-02-10T06:34:55.231Z,99031.41
2019-02-10T06:37:25.159Z,99018.28
2019-02-10T06:39:55.036Z,99024.75
2019-02-10T06:42:24.508Z,99017.05
2019-02-10T06:44:54.325Z,99017.42
2019-02-10T06:47:24.067Z,99013.28
2019-02-10T06:49:54.073Z,99010.62
2019-02-10T06:52:23.835Z,98999.25
2019-02-10T06:54:53.872Z,99001.42
2019-02-10T06:57:25.569Z,98999.81
2019-02-10T07:00:14.194Z,98999.97
2019-02-10T07:03:23.111Z,98992.22
2019-02-10T07:05:52.605Z,98982.84
2019-02-10T07:08:30.177Z,98980.66
2019-02-10T07:10:53.822Z,98976.18
2019-02-10T07:13:31.156Z,98967.91
2019-02-10T07:16:37.014Z,98956.83
2019-02-10T07:19:43.054Z,98945.31
2019-02-10T07:23:02.428Z,98942.73
2019-02-10T07:25:54.929Z,98940.34
2019-02-10T07:28:45.600Z,98920.93
2019-02-10T07:31:36.392Z,98916.18
2019-02-10T07:34:48.499Z,98909.70
2019-02-10T07:37:35.401Z,98896.56
2019-02-10T07:40:39.585Z,98887.03
2019-02-10T07:43:34.896Z,98870.50
2019-02-10T07:46:20.870Z,98854.62
2019-02-10T07:49:37.481Z,98844.75
2019-02-10T07:52:42.255Z,98836.46
2019-02-10T07:55:32.212Z,98827.31
2019-02-10T07:58:49.143Z,98812.70
2019-02-10T08:01:47.883Z,98792.11
2019-02-10T08:04:55.979Z,98781.02
2019-02-10T08:07:49.905Z,98770.73
2019-02-10T08:10:42.123Z,98756.68
2019-02-10T08:13:24.675Z,98742.77
2019-02-10T08:16:20.450Z,98723.21
2019-02-10T08:19:29.462Z,98706.64
2019-02-10T08:22:12.390Z,98688.33
2019-02-10T08:24:55.798Z,98664.95
2019-02-10T08:27:58.692Z,98653.33
2019-02-10T08:31:09.597Z,98647.38
2019-02-10T08:34:06.229Z,98647.78
2019-02-10T08:37:09.834Z,98636.20
2019-02-10T08:40:22.085Z,98622.25
2019-02-10T08:43:37.089Z,98616.84
2019-02-10T08:46:37.889Z,98602.33
2019-02-10T08:49:45.133Z,98587.17
2019-02-10T08:52:27.185Z,98568.72
2019-02-10T08:54:58.425Z,98560.69
2019-02-10T08:57:28.186Z,98549.21
2019-02-10T08:59:57.978Z,98538.28
2019-02-10T09:02:28.267Z,98533.68
2019-02-10T09:04:58.359Z,98525.52
2019-02-10T09:07:28.182Z,98515.96
2019-02-10T09:09:58.271Z,98511.48
2019-02-10T09:12:27.887Z,98506.87
2019-02-10T09:14:57.606Z,98497.38
2019-02-10T09:17:27.371Z,98495.49
2019-02-10T09:19:57.351Z,98477.17
2019-02-10T09:22:26.822Z,98475.89
2019-02-10T09:24:56.627Z,98475.43
2019-02-10T09:27:26.467Z,98477.55
2019-02-10T09:29:56.426Z,98460.39
2019-02-10T09:32:26.091Z,98465.17
2019-02-10T09:34:56.324Z,98455.42
2019-02-10T09:37:25.899Z,98448.33
2019-02-10T09:39:55.566Z,98437.83
2019-02-10T09:42:25.172Z,98435.45
2019-02-10T09:44:55.153Z,98432.92
2019-02-10T09:47:25.053Z,98422.70
2019-02-10T09:49:55.053Z,98421.64
2019-02-10T09:52:24.877Z,98408.98
2019-02-10T09:54:54.486Z,98406.12
2019-02-10T09:57:24.709Z,98386.78
2019-02-10T09:59:54.538Z,98388.25
2019-02-10T10:02:24.340Z,98387.28
2019-02-10T10:04:53.842Z,98370.80
2019-02-10T10:07:23.734Z,98373.66
2019-02-10T10:09:53.259Z,98371.01
2019-02-10T10:12:22.933Z,98356.39
2019-02-10T10:14:52.449Z,98352.67
2019-02-10T10:17:22.339Z,98345.73
2019-02-10T10:19:51.918Z,98346.68
2019-02-10T10:22:21.498Z,98339.99
2019-02-10T10:24:51.024Z,98336.17
2019-02-10T10:27:21.318Z,98331.25
2019-02-10T10:29:50.835Z,98316.86
2019-02-10T10:32:20.677Z,98316.28
2019-02-10T10:34:50.444Z,98304.75
2019-02-10T10:37:20.242Z,98285.64
2019-02-10T10:39:49.893Z,98272.00
2019-02-10T10:42:21.166Z,98278.70
2019-02-10T10:44:51.204Z,98264.33
2019-02-10T10:47:21.348Z,98260.89
2019-02-10T10:49:51.809Z,98261.62
2019-02-10T10:52:21.599Z,98266.28
2019-02-10T10:54:51.712Z,98248.06
2019-02-10T10:57:21.865Z,98249.72
2019-02-10T10:59:51.842Z,98245.77
2019-02-10T11:02:21.466Z,98241.27
2019-02-10T11:04:51.268Z,98233.96
2019-02-10T11:07:21.062Z,98225.70
2019-02-10T11:09:51.029Z,98225.70
2019-02-10T11:12:20.531Z,98216.17
2019-02-10T11:14:50.619Z,98212.45
2019-02-10T11:17:20.485Z,98198.03
2019-02-10T11:19:50.852Z,98200.25
2019-02-10T11:22:20.578Z,98187.52
2019-02-10T11:24:50.172Z,98192.44
2019-02-10T11:27:20.813Z,98165.45
2019-02-10T11:29:50.408Z,98154.98
2019-02-10T11:32:20.239Z,98165.05
2019-02-10T11:34:50.193Z,98144.16
2019-02-10T11:37:26.781Z,98149.02
2019-02-10T11:39:51.195Z,98136.23
2019-02-10T11:42:20.680Z,98134.30
2019-02-10T11:44:50.178Z,98135.86
2019-02-10T11:47:20.234Z,98127.91
2019-02-10T11:49:49.808Z,98123.38
2019-02-10T11:52:19.296Z,98130.83
2019-02-10T11:54:49.362Z,98117.39
2019-02-10T11:57:19.156Z,98116.78
2019-02-10T11:59:48.940Z,98109.42
2019-02-10T12:02:18.526Z,98110.73
2019-02-10T12:04:48.108Z,98101.65
2019-02-10T12:07:17.600Z,98111.21
2019-02-10T12:09:51.729Z,98095.83
2019-02-10T12:12:18.450Z,98087.76
2019-02-10T12:14:49.107Z,98089.50
2019-02-10T12:17:18.844Z,98084.79
2019-02-10T12:19:48.907Z,98114.22
2019-02-10T12:22:18.399Z,98092.70
2019-02-10T12:24:48.189Z,98098.19
2019-02-10T12:27:18.275Z,98069.52
2019-02-10T12:29:48.370Z,98082.57
2019-02-10T12:32:18.506Z,98084.38
2019-02-10T12:34:48.127Z,98071.45
2019-02-10T12:37:18.233Z,98065.58
2019-02-10T12:39:48.138Z,98050.66
2019-02-10T12:42:18.087Z,98060.31
2019-02-10T12:44:47.837Z,98044.70
2019-02-10T12:47:17.676Z,98043.14
2019-02-10T12:49:47.490Z,98040.75
2019-02-10T12:52:17.344Z,98032.44
2019-02-10T12:54:47.122Z,98022.88
2019-02-10T12:57:17.151Z,98021.48
2019-02-10T12:59:46.958Z,98026.27
2019-02-10T13:02:16.855Z,98013.95
2019-02-10T13:04:46.491Z,98012.47
2019-02-10T13:07:16.216Z,98012.95
2019-02-10T13:09:46.037Z,98001.05
2019-02-10T13:12:16.043Z,97996.12
2019-02-10T13:14:45.597Z,97984.06
2019-02-10T13:17:15.347Z,97987.39
2019-02-10T13:19:45.040Z,97976.69
2019-02-10T13:22:15.924Z,97970.77
2019-02-10T13:24:45.725Z,97967.35
2019-02-10T13:27:15.285Z,97954.47
2019-02-10T13:29:44.832Z,97956.27
2019-02-10T13:32:14.628Z,97948.70
2019-02-10T13:34:44.174Z,97945.16
2019-02-10T13:37:13.910Z,97950.02
2019-02-10T13:39:44.419Z,97937.55
2019-02-10T13:42:14.685Z,97937.75
2019-02-10T13:44:45.297Z,97930.05
2019-02-10T13:47:15.200Z,97929.89
2019-02-10T13:49:45.031Z,97929.76
2019-02-10T13:52:16.209Z,97934.48
2019-02-10T13:54:47.125Z,97921.30
2019-02-10T13:57:16.665Z,97908.95
2019-02-10T13:59:46.713Z,97912.08
2019-02-10T14:02:17.149Z,97914.42
2019-02-10T14:04:47.175Z,97903.50
2019-02-10T14:07:16.956Z,97905.27
2019-02-10T14:09:46.658Z,97910.78
2019-02-10T14:12:16.514Z,97905.48
2019-02-10T14:14:46.070Z,97903.67
2019-02-10T14:17:15.584Z,97911.32
2019-02-10T14:19:46.264Z,97906.91
2019-02-10T14:22:16.073Z,97907.86
2019-02-10T14:24:45.843Z,97907.17
2019-02-10T14:27:15.556Z,97901.14
2019-02-10T14:29:46.497Z,97906.55
2019-02-10T14:32:16.659Z,97908.12
2019-02-10T14:34:46.547Z,97902.69
2019-02-10T14:37:16.042Z,97900.48
2019-02-10T14:39:45.680Z,97887.02
2019-02-10T14:42:15.697Z,97902.72
2019-02-10T14:44:45.406Z,97893.55
2019-02-10T14:47:14.884Z,97894.58
2019-02-10T14:49:44.765Z,97895.43
2019-02-10T14:52:14.619Z,97886.82
2019-02-10T14:54:44.762Z,97900.01
2019-02-10T14:57:14.381Z,97891.28
2019-02-10T14:59:44.182Z,97892.50
2019-02-10T15:02:14.165Z,97891.78
2019-02-10T15:04:44.035Z,97882.33
2019-02-10T15:07:14.129Z,97882.69
2019-02-10T15:09:44.665Z,97874.20
2019-02-10T15:12:14.155Z,97884.70
2019-02-10T15:14:44.062Z,97883.92
2019-02-10T15:17:13.841Z,97875.63
2019-02-10T15:19:45.124Z,97889.48
2019-02-10T15:22:14.870Z,97889.28
2019-02-10T15:24:45.067Z,97877.84
2019-02-10T15:27:14.613Z,97876.28
2019-02-10T15:29:44.411Z,97880.32
2019-02-10T15:32:16.988Z,97881.50
2019-02-10T15:34:46.070Z,97894.77
2019-02-10T15:37:15.722Z,97882.20
2019-02-10T15:39:45.220Z,97880.56
2019-02-10T15:42:15.132Z,97886.27
2019-02-10T15:44:46.438Z,97887.39
2019-02-10T15:47:16.953Z,97880.77
2019-02-10T15:49:46.741Z,97887.13
2019-02-10T15:52:16.517Z,97891.12
2019-02-10T15:54:46.252Z,97884.59
2019-02-10T15:57:16.064Z,97882.35
2019-02-10T15:59:46.051Z,97886.73
2019-02-10T16:02:15.695Z,97884.72
2019-02-10T16:04:45.206Z,97877.51
2019-02-10T16:07:15.359Z,97884.03
2019-02-10T16:09:45.447Z,97875.04
2019-02-10T16:12:15.113Z,97882.78
2019-02-10T16:14:45.005Z,97882.35
2019-02-10T16:17:14.594Z,97881.79
2019-02-10T16:19:44.693Z,97893.52
2019-02-10T16:22:14.732Z,97893.81
2019-02-10T16:24:44.435Z,97889.59
2019-02-10T16:27:14.345Z,97895.69
2019-02-10T16:29:44.750Z,97891.86
2019-02-10T16:32:14.395Z,97894.03
2019-02-10T16:34:44.162Z,97887.05
2019-02-10T16:37:13.972Z,97895.43
2019-02-10T16:39:43.858Z,97892.80
2019-02-10T16:42:13.519Z,97904.81
2019-02-10T16:44:43.390Z,97914.13
2019-02-10T16:47:13.398Z,97924.92
2019-02-10T16:49:44.370Z,97923.06
2019-02-10T16:52:14.199Z,97913.48
2019-02-10T16:54:43.877Z,97913.48
2019-02-10T16:57:13.669Z,97908.50
2019-02-10T16:59:43.737Z,97920.22
2019-02-10T17:02:13.323Z,97919.86
2019-02-10T17:04:44.006Z,97912.58
2019-02-10T17:07:14.120Z,97915.20
2019-02-10T17:09:44.078Z,97916.76
2019-02-10T17:12:13.849Z,97913.47
2019-02-10T17:14:43.611Z,97919.44
2019-02-10T17:17:13.317Z,97917.23
2019-02-10T17:19:43.373Z,97926.32
2019-02-10T17:22:13.395Z,97931.72
2019-02-10T17:24:44.123Z,97929.28
2019-02-10T17:27:13.917Z,97935.25
2019-02-10T17:29:43.957Z,97932.77
2019-02-10T17:32:13.849Z,97937.97
2019-02-10T17:34:44.015Z,97933.93
2019-02-10T17:37:14.136Z,97943.56
2019-02-10T17:39:44.277Z,97939.28
2019-02-10T17:42:14.349Z,97941.63
2019-02-10T17:44:44.118Z,97939.90
2019-02-10T17:47:13.917Z,97940.47
2019-02-10T17:49:46.662Z,97954.80
2019-02-10T17:52:16.182Z,97962.08
2019-02-10T17:54:45.835Z,97967.26
2019-02-10T17:57:15.606Z,97977.45
2019-02-10T17:59:45.405Z,97990.41
2019-02-10T18:02:15.000Z,97992.86
2019-02-10T18:04:44.795Z,97986.75
2019-02-10T18:07:14.623Z,97981.11
2019-02-10T18:09:44.404Z,97976.25
2019-02-10T18:12:14.165Z,97983.23
2019-02-10T18:15:01.967Z,97983.03
2019-02-10T18:17:42.384Z,97980.04
2019-02-10T18:20:40.245Z,97980.86
2019-02-10T18:23:34.952Z,97981.66
2019-02-10T18:26:22.400Z,97972.78
2019-02-10T18:29:08.652Z,97978.84
2019-02-10T18:31:53.596Z,97976.22
2019-02-10T18:34:40.706Z,97983.92
2019-02-10T18:37:27.794Z,97990.05
2019-02-10T18:40:11.158Z,97996.34
2019-02-10T18:42:58.201Z,97993.11
2019-02-10T18:45:33.859Z,98007.58
2019-02-10T18:48:29.337Z,98000.42
2019-02-10T18:51:07.362Z,98006.05
2019-02-10T18:53:47.030Z,98004.25
2019-02-10T18:56:41.654Z,98001.06
2019-02-10T18:59:27.425Z,98005.10
2019-02-10T19:02:07.846Z,97993.63
2019-02-10T19:05:03.990Z,97989.96
2019-02-10T19:07:55.241Z,97997.81
2019-02-10T19:10:44.475Z,97983.11
2019-02-10T19:13:36.166Z,97991.15
2019-02-10T19:16:28.160Z,97995.22
2019-02-10T19:19:16.994Z,98003.38
2019-02-10T19:22:08.322Z,98002.16
2019-02-10T19:24:59.798Z,98001.89
2019-02-10T19:27:42.679Z,98009.23
2019-02-10T19:30:40.288Z,98022.77
2019-02-10T19:33:20.933Z,98023.70
2019-02-10T19:36:01.046Z,98017.30
2019-02-10T19:38:38.143Z,98029.48
2019-02-10T19:41:20.460Z,98041.48
2019-02-10T19:44:01.464Z,98036.00
2019-02-10T19:46:48.504Z,98045.63
2019-02-10T19:49:39.846Z,98048.59
2019-02-10T19:52:27.251Z,98040.97
2019-02-10T19:55:07.062Z,98044.83
2019-02-10T19:57:54.525Z,98050.77
2019-02-10T20:00:58.082Z,98052.23
2019-02-10T20:03:40.842Z,98056.66
2019-02-10T20:06:30.073Z,98058.31
2019-02-10T20:09:21.637Z,98053.34
2019-02-10T20:12:03.992Z,98063.05
2019-02-10T20:14:46.389Z,98070.33
2019-02-10T20:17:35.235Z,98055.28
2019-02-10T20:20:19.701Z,98064.86
2019-02-10T20:23:00.085Z,98072.63
2019-02-10T20:25:42.933Z,98077.02
2019-02-10T20:28:34.704Z,98081.08
2019-02-10T20:31:15.184Z,98098.62
2019-02-10T20:34:02.540Z,98084.92
2019-02-10T20:36:50.353Z,98106.66
2019-02-10T20:39:39.188Z,98105.23
2019-02-10T20:42:31.300Z,98106.68
2019-02-10T20:45:07.831Z,98113.00
2019-02-10T20:47:46.087Z,98122.28
2019-02-10T20:50:33.799Z,98124.92
2019-02-10T20:53:17.342Z,98131.37
2019-02-10T20:56:06.357Z,98128.14
2019-02-10T20:58:47.670Z,98157.80
2019-02-10T21:01:39.435Z,98149.09
2019-02-10T21:04:16.310Z,98160.89
2019-02-10T21:07:10.420Z,98163.38
2019-02-10T21:09:50.133Z,98172.90
2019-02-10T21:12:47.921Z,98190.95
2019-02-10T21:15:38.205Z,98185.84
2019-02-10T21:18:26.827Z,98206.58
2019-02-10T21:21:13.952Z,98218.45
2019-02-10T21:24:01.684Z,98224.91
2019-02-10T21:26:47.616Z,98232.72
2019-02-10T21:29:36.693Z,98240.53
2019-02-10T21:32:13.743Z,98254.55
2019-02-10T21:34:49.163Z,98279.31
2019-02-10T21:37:42.364Z,98262.70
2019-02-10T21:40:34.625Z,98256.89
2019-02-10T21:43:32.289Z,98274.62
2019-02-10T21:46:24.150Z,98285.70
2019-02-10T21:49:00.032Z,98283.31
2019-02-10T21:51:29.687Z,98292.41
2019-02-10T21:53:59.963Z,98294.63
2019-02-10T21:56:29.739Z,98289.55
2019-02-10T21:58:59.227Z,98289.11
2019-02-10T22:01:29.026Z,98301.34
2019-02-10T22:03:58.765Z,98298.48
2019-02-10T22:06:30.445Z,98304.23
2019-02-10T22:08:59.908Z,98316.08
2019-02-10T22:11:29.688Z,98337.86
2019-02-10T22:13:59.461Z,98332.55
2019-02-10T22:16:29.786Z,98364.37
2019-02-10T22:18:59.310Z,98341.98
2019-02-10T22:21:28.796Z,98369.80
2019-02-10T22:23:58.587Z,98380.52
2019-02-10T22:26:28.348Z,98390.35
2019-02-10T22:28:58.099Z,98389.64
2019-02-10T22:31:28.272Z,98392.17
2019-02-10T22:33:58.013Z,98406.95
2019-02-10T22:36:27.536Z,98410.34
2019-02-10T22:38:57.381Z,98422.50
2019-02-10T22:41:27.297Z,98429.06
2019-02-10T22:43:57.083Z,98438.97
2019-02-10T22:46:27.014Z,98426.00
2019-02-10T22:48:57.462Z,98438.86
2019-02-10T22:51:27.874Z,98448.59
2019-02-10T22:53:57.362Z,98455.57
2019-02-10T22:56:27.127Z,98452.80
2019-02-10T22:58:57.001Z,98457.74
2019-02-10T23:01:27.806Z,98461.27
2019-02-10T23:03:57.304Z,98463.23
2019-02-10T23:06:27.055Z,98469.58
2019-02-10T23:08:56.795Z,98466.56
2019-02-10T23:11:26.357Z,98477.77
2019-02-10T23:13:56.488Z,98474.59
2019-02-10T23:16:25.959Z,98499.62
2019-02-10T23:18:55.422Z,98502.87
2019-02-10T23:21:25.463Z,98511.66
2019-02-10T23:23:54.975Z,98519.50
2019-02-10T23:26:25.580Z,98525.92
2019-02-10T23:28:55.148Z,98552.81
2019-02-10T23:31:25.327Z,98547.78
2019-02-10T23:33:55.168Z,98556.73
2019-02-10T23:36:25.038Z,98576.73
2019-02-10T23:38:54.786Z,98580.92
2019-02-10T23:41:24.773Z,98588.02
2019-02-10T23:43:54.539Z,98592.69
2019-02-10T23:46:24.500Z,98604.90
2019-02-10T23:48:54.304Z,98616.78
2019-02-10T23:51:23.819Z,98616.50
2019-02-10T23:53:53.336Z,98631.61
2019-02-10T23:56:22.858Z,98640.20
2019-02-10T23:58:53.170Z,98638.53
